createdAt,value
2023-05-01T00:01:48.397Z,20.54
2023-05-01T00:04:17.172Z,20.53
2023-05-01T00:06:47.383Z,20.51
2023-05-01T00:09:16.477Z,20.51
2023-05-01T00:11:46.047Z,20.49
2023-05-01T00:14:14.418Z,20.49
2023-05-01T00:16:43.075Z,20.47
2023-05-01T00:19:12.776Z,20.45
2023-05-01T00:21:41.565Z,20.42
2023-05-01T00:24:11.412Z,20.41
2023-05-01T00:26:39.786Z,20.39
2023-05-01T00:29:08.745Z,20.37
2023-05-01T00:31:37.655Z,20.36
2023-05-01T00:34:06.213Z,20.34
2023-05-01T00:36:34.774Z,20.31
2023-05-01T00:39:03.409Z,20.30
2023-05-01T00:41:33.153Z,20.26
2023-05-01T00:44:01.587Z,20.24
2023-05-01T00:46:31.154Z,20.23
2023-05-01T00:48:59.989Z,20.20
2023-05-01T00:51:31.330Z,20.19
2023-05-01T00:54:01.514Z,20.16
2023-05-01T00:56:30.556Z,20.14
2023-05-01T00:59:02.214Z,20.11
2023-05-01T01:01:31.725Z,20.09
2023-05-01T01:04:00.343Z,20.05
2023-05-01T01:06:37.554Z,20.05
2023-05-01T01:09:24.824Z,20.00
2023-05-01T01:12:05.045Z,19.98
2023-05-01T01:14:43.872Z,19.98
2023-05-01T01:17:27.013Z,19.95
2023-05-01T01:20:19.943Z,19.92
2023-05-01T01:22:55.478Z,19.90
2023-05-01T01:26:01.580Z,19.88
2023-05-01T01:29:23.715Z,19.80
2023-05-01T01:32:05.767Z,19.79
2023-05-01T01:34:37.753Z,19.78
2023-05-01T01:37:13.813Z,19.77
2023-05-01T01:39:49.961Z,19.74
2023-05-01T01:42:23.128Z,19.73
2023-05-01T01:44:56.040Z,19.70
2023-05-01T01:47:29.337Z,19.68
2023-05-01T01:50:02.458Z,19.65
2023-05-01T01:52:32.865Z,19.63
2023-05-01T01:55:07.661Z,19.61
2023-05-01T01:57:37.953Z,19.60
2023-05-01T02:00:08.964Z,19.57
2023-05-01T02:02:42.712Z,19.55
2023-05-01T02:05:16.603Z,19.53
2023-05-01T02:07:48.785Z,19.51
2023-05-01T02:10:19.362Z,19.49
2023-05-01T02:12:49.816Z,19.46
2023-05-01T02:15:20.382Z,19.44
2023-05-01T02:17:51.327Z,19.43
2023-05-01T02:20:22.738Z,19.42
2023-05-01T02:22:53.725Z,19.41
2023-05-01T02:25:22.414Z,19.40
2023-05-01T02:27:58.019Z,19.39
2023-05-01T02:30:26.436Z,19.39
2023-05-01T02:32:55.164Z,19.36
2023-05-01T02:35:25.050Z,19.35
2023-05-01T02:37:53.711Z,19.34
2023-05-01T02:40:22.514Z,19.33
2023-05-01T02:42:53.240Z,19.31
2023-05-01T02:45:26.776Z,19.31
2023-05-01T02:48:00.061Z,19.31
2023-05-01T02:50:31.418Z,19.29
2023-05-01T02:53:00.397Z,19.27
2023-05-01T02:55:45.982Z,19.26
2023-05-01T02:58:17.805Z,19.26
2023-05-01T03:00:47.181Z,19.25
2023-05-01T03:03:15.872Z,19.24
2023-05-01T03:05:45.891Z,19.24
2023-05-01T03:08:14.395Z,19.23
2023-05-01T03:10:43.695Z,19.22
2023-05-01T03:13:12.676Z,19.22
2023-05-01T03:15:41.336Z,19.19
2023-05-01T03:18:10.033Z,19.20
2023-05-01T03:20:38.557Z,19.18
2023-05-01T03:23:09.230Z,19.18
2023-05-01T03:25:38.888Z,19.17
2023-05-01T03:28:07.418Z,19.18
2023-05-01T03:30:36.317Z,19.15
2023-05-01T03:33:05.150Z,19.16
2023-05-01T03:35:34.953Z,19.16
2023-05-01T03:38:08.803Z,19.14
2023-05-01T03:40:56.011Z,19.10
2023-05-01T03:43:42.992Z,19.09
2023-05-01T03:46:21.896Z,19.09
2023-05-01T03:48:50.657Z,19.09
2023-05-01T03:51:19.425Z,19.09
2023-05-01T03:53:49.706Z,19.10
2023-05-01T03:56:18.783Z,19.09
2023-05-01T03:58:47.433Z,19.08
2023-05-01T04:01:15.903Z,19.07
2023-05-01T04:03:46.612Z,19.05
2023-05-01T04:06:17.273Z,19.05
2023-05-01T04:08:46.134Z,19.04
2023-05-01T04:11:16.034Z,19.03
2023-05-01T04:13:44.578Z,19.01
2023-05-01T04:16:13.800Z,19.00
2023-05-01T04:18:42.611Z,18.99
2023-05-01T04:21:11.309Z,18.96
2023-05-01T04:23:41.630Z,18.94
2023-05-01T04:26:10.360Z,18.94
2023-05-01T04:28:40.291Z,18.93
2023-05-01T04:31:11.509Z,18.92
2023-05-01T04:33:39.990Z,18.92
2023-05-01T04:36:08.896Z,18.91
2023-05-01T04:38:38.196Z,18.89
2023-05-01T04:41:07.299Z,18.89
2023-05-01T04:43:35.860Z,18.88
2023-05-01T04:46:06.653Z,18.86
2023-05-01T04:48:35.933Z,18.85
2023-05-01T04:51:04.933Z,18.85
2023-05-01T04:53:36.510Z,18.85
2023-05-01T04:56:07.364Z,18.85
2023-05-01T04:58:35.931Z,18.86
2023-05-01T05:01:12.100Z,18.85
2023-05-01T05:03:41.372Z,18.86
2023-05-01T05:06:11.656Z,18.84
2023-05-01T05:08:40.213Z,18.87
2023-05-01T05:11:12.333Z,18.86
2023-05-01T05:13:57.246Z,18.86
2023-05-01T05:16:28.206Z,18.86
2023-05-01T05:18:57.951Z,18.87
2023-05-01T05:21:28.875Z,18.86
2023-05-01T05:23:59.228Z,18.85
2023-05-01T05:26:28.875Z,18.87
2023-05-01T05:29:00.332Z,18.87
2023-05-01T05:31:30.716Z,18.88
2023-05-01T05:33:59.320Z,18.89
2023-05-01T05:36:28.768Z,18.89
2023-05-01T05:38:57.381Z,18.90
2023-05-01T05:41:27.101Z,18.90
2023-05-01T05:43:59.920Z,18.91
2023-05-01T05:46:31.258Z,18.92
2023-05-01T05:48:59.926Z,18.90
2023-05-01T05:51:29.622Z,18.91
2023-05-01T05:53:58.357Z,18.92
2023-05-01T05:56:27.193Z,18.94
2023-05-01T05:58:55.732Z,18.95
2023-05-01T06:01:24.438Z,18.97
2023-05-01T06:03:54.540Z,18.99
2023-05-01T06:06:25.118Z,19.00
2023-05-01T06:08:53.693Z,19.02
2023-05-01T06:11:23.247Z,19.04
2023-05-01T06:13:51.996Z,19.06
2023-05-01T06:16:20.613Z,19.10
2023-05-01T06:18:49.705Z,19.12
2023-05-01T06:21:19.929Z,19.15
2023-05-01T06:23:48.416Z,19.16
2023-05-01T06:26:41.181Z,19.18
2023-05-01T06:29:09.645Z,19.22
2023-05-01T06:31:38.134Z,19.24
2023-05-01T06:34:06.635Z,19.27
2023-05-01T06:36:55.951Z,19.29
2023-05-01T06:39:25.169Z,19.33
2023-05-01T06:41:54.494Z,19.35
2023-05-01T06:44:32.957Z,19.38
2023-05-01T06:47:03.501Z,19.43
2023-05-01T06:49:31.904Z,19.45
2023-05-01T06:52:02.272Z,19.51
2023-05-01T06:54:31.053Z,19.53
2023-05-01T06:56:59.762Z,19.57
2023-05-01T06:59:28.144Z,19.61
2023-05-01T07:01:56.637Z,19.63
2023-05-01T07:04:25.246Z,19.66
2023-05-01T07:06:53.734Z,19.70
2023-05-01T07:09:23.809Z,19.75
2023-05-01T07:11:52.146Z,19.76
2023-05-01T07:14:20.514Z,19.80
2023-05-01T07:16:49.171Z,19.84
2023-05-01T07:19:17.577Z,19.88
2023-05-01T07:21:45.935Z,19.91
2023-05-01T07:24:14.395Z,19.94
2023-05-01T07:26:44.614Z,19.99
2023-05-01T07:29:13.293Z,20.02
2023-05-01T07:31:41.862Z,20.05
2023-05-01T07:34:10.222Z,20.09
2023-05-01T07:36:39.051Z,20.11
2023-05-01T07:39:07.750Z,20.15
2023-05-01T07:41:36.212Z,20.17
2023-05-01T07:44:06.136Z,20.22
2023-05-01T07:46:35.273Z,20.24
2023-05-01T07:49:04.310Z,20.29
2023-05-01T07:51:33.330Z,20.34
2023-05-01T07:54:04.764Z,20.34
2023-05-01T07:56:33.423Z,20.37
2023-05-01T07:59:02.028Z,20.40
2023-05-01T08:01:34.183Z,20.45
2023-05-01T08:04:02.905Z,20.48
2023-05-01T08:06:32.862Z,20.52
2023-05-01T08:09:01.200Z,20.57
2023-05-01T08:11:29.894Z,20.62
2023-05-01T08:13:58.284Z,20.66
2023-05-01T08:16:26.891Z,20.68
2023-05-01T08:18:56.731Z,20.73
2023-05-01T08:21:25.085Z,20.75
2023-05-01T08:23:56.216Z,20.79
2023-05-01T08:26:24.968Z,20.83
2023-05-01T08:28:53.403Z,20.85
2023-05-01T08:31:22.747Z,20.90
2023-05-01T08:33:51.418Z,20.94
2023-05-01T08:36:21.534Z,20.98
2023-05-01T08:38:50.381Z,21.01
2023-05-01T08:41:23.800Z,21.07
2023-05-01T08:43:52.696Z,21.09
2023-05-01T08:46:28.041Z,21.13
2023-05-01T08:48:59.490Z,21.15
2023-05-01T08:51:33.340Z,21.17
2023-05-01T08:54:04.837Z,21.18
2023-05-01T08:56:33.724Z,21.19
2023-05-01T08:59:05.267Z,21.23
2023-05-01T09:01:35.065Z,21.26
2023-05-01T09:04:05.064Z,21.30
2023-05-01T09:06:34.957Z,21.31
2023-05-01T09:09:03.682Z,21.36
2023-05-01T09:11:32.181Z,21.40
2023-05-01T09:14:05.425Z,21.43
2023-05-01T09:16:33.997Z,21.47
2023-05-01T09:19:02.462Z,21.51
2023-05-01T09:21:31.990Z,21.56
2023-05-01T09:24:02.869Z,21.59
2023-05-01T09:26:31.600Z,21.64
2023-05-01T09:29:00.573Z,21.68
2023-05-01T09:31:32.386Z,21.72
2023-05-01T09:34:03.628Z,21.76
2023-05-01T09:36:34.239Z,21.84
2023-05-01T09:39:04.611Z,21.90
2023-05-01T09:41:33.945Z,21.97
2023-05-01T09:44:02.736Z,22.05
2023-05-01T09:46:43.765Z,22.11
2023-05-01T09:49:12.230Z,22.18
2023-05-01T09:51:40.729Z,22.24
2023-05-01T09:54:20.879Z,22.31
2023-05-01T09:56:51.055Z,22.35
2023-05-01T09:59:21.726Z,22.41
2023-05-01T10:01:52.713Z,22.47
2023-05-01T10:04:32.023Z,22.52
2023-05-01T10:07:02.599Z,22.52
2023-05-01T10:09:32.841Z,22.57
2023-05-01T10:12:01.210Z,22.63
2023-05-01T10:14:30.489Z,22.65
2023-05-01T10:16:59.308Z,22.69
2023-05-01T10:19:27.920Z,22.74
2023-05-01T10:21:56.543Z,22.81
2023-05-01T10:24:24.873Z,22.86
2023-05-01T10:26:55.824Z,22.91
2023-05-01T10:29:25.606Z,22.91
2023-05-01T10:31:54.149Z,22.97
2023-05-01T10:34:28.165Z,23.03
2023-05-01T10:37:02.091Z,23.08
2023-05-01T10:39:35.174Z,23.12
2023-05-01T10:42:06.299Z,23.15
2023-05-01T10:44:35.882Z,23.19
2023-05-01T10:47:48.029Z,23.25
2023-05-01T10:50:17.972Z,23.28
2023-05-01T10:53:18.779Z,23.33
2023-05-01T10:55:49.493Z,23.32
2023-05-01T10:59:04.590Z,23.31
2023-05-01T11:01:36.146Z,23.32
2023-05-01T11:04:08.102Z,23.37
2023-05-01T11:06:37.821Z,23.39
2023-05-01T11:09:41.189Z,23.40
2023-05-01T11:12:11.534Z,23.40
2023-05-01T11:15:15.068Z,23.40
2023-05-01T11:17:47.686Z,23.43
2023-05-01T11:20:50.989Z,23.44
2023-05-01T11:23:25.565Z,23.46
2023-05-01T11:26:06.243Z,23.49
2023-05-01T11:28:35.668Z,23.50
2023-05-01T11:31:07.750Z,23.52
2023-05-01T11:33:36.167Z,23.56
2023-05-01T11:36:05.184Z,23.60
2023-05-01T11:38:33.640Z,23.61
2023-05-01T11:41:04.581Z,23.63
2023-05-01T11:43:33.199Z,23.65
2023-05-01T11:46:04.740Z,23.67
2023-05-01T11:48:34.552Z,23.70
2023-05-01T11:51:13.741Z,23.72
2023-05-01T11:53:42.277Z,23.76
2023-05-01T11:56:26.559Z,23.79
2023-05-01T11:58:57.519Z,23.81
2023-05-01T12:01:36.092Z,23.85
2023-05-01T12:04:07.965Z,23.88
2023-05-01T12:06:44.077Z,23.93
2023-05-01T12:09:17.507Z,23.97
2023-05-01T12:11:47.436Z,23.99
2023-05-01T12:14:16.823Z,24.05
2023-05-01T12:16:46.481Z,24.08
2023-05-01T12:19:17.556Z,24.11
2023-05-01T12:21:46.563Z,24.12
2023-05-01T12:24:17.533Z,24.15
2023-05-01T12:26:47.094Z,24.18
2023-05-01T12:29:15.524Z,24.21
2023-05-01T12:31:49.466Z,24.24
2023-05-01T12:34:19.822Z,24.24
2023-05-01T12:36:55.329Z,24.21
2023-05-01T12:39:24.700Z,24.20
2023-05-01T12:41:54.553Z,24.22
2023-05-01T12:44:25.382Z,24.23
2023-05-01T12:47:00.461Z,24.22
2023-05-01T12:49:31.992Z,24.19
2023-05-01T12:52:03.712Z,24.18
2023-05-01T12:54:34.046Z,24.17
2023-05-01T12:57:11.777Z,24.16
2023-05-01T12:59:41.942Z,24.14
2023-05-01T13:02:12.534Z,24.16
2023-05-01T13:04:43.234Z,24.21
2023-05-01T13:07:12.972Z,24.24
2023-05-01T13:09:41.716Z,24.26
2023-05-01T13:12:10.575Z,24.27
2023-05-01T13:14:40.940Z,24.26
2023-05-01T13:17:11.762Z,24.28
2023-05-01T13:19:41.688Z,24.30
2023-05-01T13:22:10.236Z,24.31
2023-05-01T13:24:40.295Z,24.32
2023-05-01T13:27:10.461Z,24.34
2023-05-01T13:29:39.923Z,24.35
2023-05-01T13:32:13.459Z,24.37
2023-05-01T13:34:45.095Z,24.40
2023-05-01T13:37:14.542Z,24.42
2023-05-01T13:39:43.628Z,24.43
2023-05-01T13:42:13.953Z,24.45
2023-05-01T13:44:46.258Z,24.46
2023-05-01T13:47:18.047Z,24.47
2023-05-01T13:49:48.785Z,24.50
2023-05-01T13:52:19.201Z,24.53
2023-05-01T13:54:48.872Z,24.54
2023-05-01T13:57:18.099Z,24.54
2023-05-01T13:59:48.638Z,24.57
2023-05-01T14:02:22.726Z,24.60
2023-05-01T14:04:52.679Z,24.63
2023-05-01T14:07:23.478Z,24.64
2023-05-01T14:09:55.958Z,24.65
2023-05-01T14:12:29.906Z,24.66
2023-05-01T14:15:00.116Z,24.64
2023-05-01T14:17:33.626Z,24.62
2023-05-01T14:20:04.845Z,24.62
2023-05-01T14:22:43.992Z,24.63
2023-05-01T14:25:25.611Z,24.63
2023-05-01T14:27:55.130Z,24.63
2023-05-01T14:30:33.283Z,24.69
2023-05-01T14:33:03.722Z,24.77
2023-05-01T14:35:35.393Z,24.86
2023-05-01T14:38:10.850Z,24.94
2023-05-01T14:40:42.201Z,25.00
2023-05-01T14:43:12.217Z,25.04
2023-05-01T14:45:43.698Z,25.08
2023-05-01T14:48:12.961Z,25.09
2023-05-01T14:50:44.025Z,25.10
2023-05-01T14:53:13.059Z,25.12
2023-05-01T14:55:43.232Z,25.13
2023-05-01T14:58:11.791Z,25.08
2023-05-01T15:00:40.196Z,25.07
2023-05-01T15:03:08.752Z,25.05
2023-05-01T15:05:38.419Z,25.03
2023-05-01T15:08:10.199Z,25.01
2023-05-01T15:10:38.743Z,25.01
2023-05-01T15:13:07.350Z,24.97
2023-05-01T15:15:35.769Z,24.96
2023-05-01T15:18:04.812Z,24.93
2023-05-01T15:20:33.769Z,24.88
2023-05-01T15:23:02.081Z,24.77
2023-05-01T15:25:32.295Z,24.65
2023-05-01T15:28:00.687Z,24.51
2023-05-01T15:30:29.183Z,24.42
2023-05-01T15:32:57.765Z,24.35
2023-05-01T15:35:26.547Z,24.27
2023-05-01T15:37:56.504Z,24.16
2023-05-01T15:40:25.277Z,24.07
2023-05-01T15:42:55.682Z,23.99
2023-05-01T15:45:24.303Z,23.88
2023-05-01T15:47:52.666Z,23.73
2023-05-01T15:50:22.142Z,23.62
2023-05-01T15:52:51.304Z,23.49
2023-05-01T15:55:21.693Z,23.40
2023-05-01T15:57:50.093Z,23.31
2023-05-01T16:00:21.967Z,23.25
2023-05-01T16:02:50.592Z,23.17
2023-05-01T16:05:22.443Z,23.12
2023-05-01T16:07:55.078Z,23.06
2023-05-01T16:10:25.449Z,23.01
2023-05-01T16:12:54.778Z,22.98
2023-05-01T16:15:25.083Z,22.97
2023-05-01T16:17:54.993Z,22.95
2023-05-01T16:20:25.102Z,22.95
2023-05-01T16:22:53.653Z,22.93
2023-05-01T16:25:22.271Z,22.91
2023-05-01T16:27:50.819Z,22.80
2023-05-01T16:30:19.364Z,22.67
2023-05-01T16:32:49.437Z,22.52
2023-05-01T16:35:19.391Z,22.38
2023-05-01T16:37:48.010Z,22.24
2023-05-01T16:40:19.157Z,22.13
2023-05-01T16:42:52.574Z,22.08
2023-05-01T16:45:21.288Z,22.09
2023-05-01T16:47:51.706Z,22.12
2023-05-01T16:50:23.151Z,22.15
2023-05-01T16:52:51.835Z,22.21
2023-05-01T16:55:20.178Z,22.30
2023-05-01T16:57:49.194Z,22.37
2023-05-01T17:00:18.499Z,22.41
2023-05-01T17:02:49.669Z,22.41
2023-05-01T17:05:20.521Z,22.42
2023-05-01T17:07:49.201Z,22.43
2023-05-01T17:10:17.817Z,22.44
2023-05-01T17:12:46.268Z,22.47
2023-05-01T17:15:14.970Z,22.51
2023-05-01T17:17:45.391Z,22.56
2023-05-01T17:20:14.908Z,22.60
2023-05-01T17:22:45.663Z,22.60
2023-05-01T17:25:15.142Z,22.60
2023-05-01T17:27:43.688Z,22.62
2023-05-01T17:30:12.887Z,22.65
2023-05-01T17:32:41.861Z,22.67
2023-05-01T17:35:10.989Z,22.70
2023-05-01T17:37:40.735Z,22.71
2023-05-01T17:40:12.711Z,22.72
2023-05-01T17:42:41.874Z,22.74
2023-05-01T17:45:11.527Z,22.76
2023-05-01T17:47:42.936Z,22.80
2023-05-01T17:50:13.327Z,22.82
2023-05-01T17:52:43.359Z,22.84
2023-05-01T17:55:17.157Z,22.87
2023-05-01T17:57:48.146Z,22.89
2023-05-01T18:00:17.723Z,22.90
2023-05-01T18:02:47.598Z,22.90
2023-05-01T18:05:16.331Z,22.89
2023-05-01T18:07:44.745Z,22.90
2023-05-01T18:10:15.176Z,22.88
2023-05-01T18:12:45.738Z,22.80
2023-05-01T18:15:19.365Z,22.74
2023-05-01T18:17:51.284Z,22.69
2023-05-01T18:20:19.782Z,22.67
2023-05-01T18:22:48.405Z,22.68
2023-05-01T18:25:20.054Z,22.69
2023-05-01T18:27:49.171Z,22.70
2023-05-01T18:30:18.006Z,22.72
2023-05-01T18:32:48.833Z,22.72
2023-05-01T18:35:19.076Z,22.74
2023-05-01T18:37:47.783Z,22.77
2023-05-01T18:40:18.081Z,22.75
2023-05-01T18:42:46.949Z,22.72
2023-05-01T18:45:15.421Z,22.73
2023-05-01T18:47:43.901Z,22.73
2023-05-01T18:50:13.268Z,22.73
2023-05-01T18:52:43.423Z,22.72
2023-05-01T18:55:12.397Z,22.72
2023-05-01T18:57:43.720Z,22.71
2023-05-01T19:00:17.588Z,22.71
2023-05-01T19:02:51.518Z,22.71
2023-05-01T19:05:22.770Z,22.70
2023-05-01T19:07:51.293Z,22.70
2023-05-01T19:10:19.897Z,22.69
2023-05-01T19:12:50.923Z,22.68
2023-05-01T19:15:19.625Z,22.65
2023-05-01T19:17:48.158Z,22.61
2023-05-01T19:20:17.083Z,22.59
2023-05-01T19:22:45.513Z,22.56
2023-05-01T19:25:14.182Z,22.52
2023-05-01T19:27:43.034Z,22.50
2023-05-01T19:30:13.606Z,22.47
2023-05-01T19:32:42.008Z,22.42
2023-05-01T19:35:11.726Z,22.38
2023-05-01T19:37:40.802Z,22.35
2023-05-01T19:40:10.607Z,22.35
2023-05-01T19:42:39.075Z,22.35
2023-05-01T19:45:09.099Z,22.34
2023-05-01T19:47:39.088Z,22.35
2023-05-01T19:50:09.446Z,22.34
2023-05-01T19:52:38.134Z,22.33
2023-05-01T19:55:08.294Z,22.32
2023-05-01T19:57:36.681Z,22.30
2023-05-01T20:00:07.015Z,22.29
2023-05-01T20:02:39.899Z,22.26
2023-05-01T20:05:09.335Z,22.25
2023-05-01T20:07:38.053Z,22.22
2023-05-01T20:10:07.489Z,22.23
2023-05-01T20:12:35.872Z,22.20
2023-05-01T20:15:04.995Z,22.17
2023-05-01T20:17:34.149Z,22.16
2023-05-01T20:20:04.150Z,22.16
2023-05-01T20:22:32.632Z,22.13
2023-05-01T20:25:01.093Z,22.13
2023-05-01T20:27:29.559Z,22.12
2023-05-01T20:29:58.225Z,22.12
2023-05-01T20:32:26.767Z,22.12
2023-05-01T20:34:56.034Z,22.11
2023-05-01T20:37:25.848Z,22.10
2023-05-01T20:39:54.271Z,22.08
2023-05-01T20:42:22.788Z,22.07
2023-05-01T20:44:51.170Z,22.06
2023-05-01T20:47:19.837Z,22.05
2023-05-01T20:49:49.078Z,22.04
2023-05-01T20:52:17.429Z,22.02
2023-05-01T20:54:47.268Z,22.01
2023-05-01T20:57:17.608Z,21.98
2023-05-01T20:59:50.942Z,21.97
2023-05-01T21:02:19.307Z,21.97
2023-05-01T21:04:47.637Z,21.96
2023-05-01T21:07:16.658Z,21.94
2023-05-01T21:09:47.221Z,21.94
2023-05-01T21:12:16.267Z,21.94
2023-05-01T21:14:44.627Z,21.93
2023-05-01T21:17:13.632Z,21.92
2023-05-01T21:19:46.569Z,21.93
2023-05-01T21:22:17.771Z,21.92
2023-05-01T21:24:54.447Z,21.91
2023-05-01T21:27:24.195Z,21.90
2023-05-01T21:29:57.704Z,21.90
2023-05-01T21:32:32.468Z,21.90
2023-05-01T21:35:01.432Z,21.88
2023-05-01T21:37:30.143Z,21.86
2023-05-01T21:40:02.246Z,21.88
2023-05-01T21:42:32.565Z,21.84
2023-05-01T21:45:01.093Z,21.81
2023-05-01T21:47:29.921Z,21.79
2023-05-01T21:49:59.304Z,21.76
2023-05-01T21:52:30.346Z,21.71
2023-05-01T21:55:00.184Z,21.66
2023-05-01T21:57:30.577Z,21.62
2023-05-01T22:00:01.230Z,21.59
2023-05-01T22:02:38.580Z,21.56
2023-05-01T22:05:07.896Z,21.53
2023-05-01T22:07:38.426Z,21.52
2023-05-01T22:10:12.009Z,21.51
2023-05-01T22:12:41.403Z,21.49
2023-05-01T22:15:11.893Z,21.49
2023-05-01T22:17:41.460Z,21.49
2023-05-01T22:20:10.722Z,21.47
2023-05-01T22:22:42.334Z,21.49
2023-05-01T22:25:13.147Z,21.47
2023-05-01T22:27:42.080Z,21.46
2023-05-01T22:30:12.289Z,21.44
2023-05-01T22:32:40.959Z,21.43
2023-05-01T22:35:10.260Z,21.39
2023-05-01T22:37:38.635Z,21.34
2023-05-01T22:40:09.256Z,21.32
2023-05-01T22:42:39.663Z,21.29
2023-05-01T22:45:08.956Z,21.27
2023-05-01T22:47:37.641Z,21.27
2023-05-01T22:50:07.081Z,21.28
2023-05-01T22:52:35.419Z,21.27
2023-05-01T22:55:03.838Z,21.28
2023-05-01T22:57:32.872Z,21.28
2023-05-01T23:00:02.939Z,21.29
2023-05-01T23:02:31.488Z,21.28
2023-05-01T23:05:00.193Z,21.28
2023-05-01T23:07:28.775Z,21.29
2023-05-01T23:09:57.493Z,21.26
2023-05-01T23:12:27.670Z,21.25
2023-05-01T23:14:56.653Z,21.18
2023-05-01T23:17:35.146Z,21.12
2023-05-01T23:20:04.902Z,21.07
2023-05-01T23:22:38.201Z,21.05
2023-05-01T23:25:08.162Z,20.99
2023-05-01T23:27:42.826Z,20.95
2023-05-01T23:30:13.098Z,20.91
2023-05-01T23:32:43.860Z,20.88
2023-05-01T23:35:15.817Z,20.86
2023-05-01T23:37:44.479Z,20.83
2023-05-01T23:40:13.187Z,20.81
2023-05-01T23:42:41.920Z,20.80
2023-05-01T23:45:10.776Z,20.82
2023-05-01T23:47:39.881Z,20.81
2023-05-01T23:50:11.340Z,20.83
2023-05-01T23:52:39.796Z,20.81
2023-05-01T23:55:08.905Z,20.81
2023-05-01T23:57:37.362Z,20.83
